Time;durP1;ratioP1;P1;durP2;ratioP2;P2;SDS_P1;SDS_P2;PMS_P1;PMS_P2;Temp;Humidity;BMP_temperature;BMP_pressure;BME280_temperature;BME280_humidity;BME280_pressure;Samples;Min_cycle;Max_cycle;Signal;HPM_P1;HPM_P2
2022/11/11 00:00:11;;;;;;;62.22;46.83;;;;;;;7.23;100.00;101196.44;5030929;28;20116;-67
2022/11/11 00:02:36;;;;;;;65.10;48.15;;;;;;;7.23;100.00;101207.38;5062102;28;20052;-67
2022/11/11 00:05:02;;;;;;;64.53;49.35;;;;;;;7.27;100.00;101243.66;5051532;28;20083;-67
2022/11/11 00:07:27;;;;;;;64.28;49.35;;;;;;;7.11;100.00;101265.47;5053589;28;20448;-67
2022/11/11 00:09:53;;;;;;;64.40;49.03;;;;;;;6.43;100.00;101127.69;5052964;28;20032;-67
2022/11/11 00:12:18;;;;;;;61.22;46.60;;;;;;;7.09;100.00;101173.59;5035118;28;20037;-67
2022/11/11 00:14:43;;;;;;;66.43;48.90;;;;;;;7.00;100.00;101224.97;5053123;28;20120;-67
2022/11/11 00:25:24;;;;;;;60.67;42.65;;;;;;;6.54;100.00;101184.16;5053482;28;20047;-68
2022/11/11 00:27:50;;;;;;;53.83;41.10;;;;;;;7.27;100.00;101231.03;5052288;28;20474;-68
2022/11/11 00:30:15;;;;;;;53.90;40.65;;;;;;;6.99;100.00;101238.41;5052737;28;20037;-67
2022/11/11 00:32:41;;;;;;;57.10;40.88;;;;;;;7.31;100.00;101265.63;5052744;28;20039;-68
2022/11/11 00:37:50;;;;;;;55.25;40.45;;;;;;;6.88;100.00;101242.56;5052695;28;20036;-67
2022/11/11 00:40:17;;;;;;;58.55;41.13;;;;;;;6.64;100.00;101256.69;5052459;28;20033;-67
2022/11/11 00:42:42;;;;;;;60.33;39.42;;;;;;;6.54;100.00;101202.72;5052277;28;20123;-67
2022/11/11 00:45:09;;;;;;;55.72;39.08;;;;;;;6.98;100.00;101259.50;5052319;28;20035;-67
2022/11/11 00:53:16;;;;;;;52.53;38.40;;;;;;;6.47;100.00;101190.03;5051749;28;20088;-67
2022/11/11 00:55:42;;;;;;;55.85;38.63;;;;;;;6.82;100.00;101250.09;5051937;28;20519;-67
2022/11/11 00:58:07;;;;;;;55.25;38.97;;;;;;;6.11;100.00;101180.44;5034072;28;20025;-67
2022/11/11 01:00:33;;;;;;;61.92;40.78;;;;;;;6.64;100.00;101264.25;5052049;28;20143;-67
2022/11/11 01:02:59;;;;;;;60.97;42.33;;;;;;;6.51;100.00;101195.13;5051812;28;20036;-67
2022/11/11 01:05:25;;;;;;;57.67;40.72;;;;;;;6.81;100.00;101248.41;5033613;28;20024;-66
2022/11/11 01:07:51;;;;;;;66.28;45.83;;;;;;;7.09;100.00;101251.13;5052130;28;20083;-66
2022/11/11 01:10:36;;;;;;;65.90;46.00;;;;;;;6.58;100.00;101191.78;5052102;28;20040;-66
2022/11/11 01:13:12;;;;;;;63.58;44.65;;;;;;;6.44;100.00;101256.50;5033868;28;20029;-66
2022/11/11 01:15:40;;;;;;;58.10;43.83;;;;;;;6.20;100.00;101159.50;5051362;28;20033;-67
2022/11/11 01:18:06;;;;;;;66.50;45.10;;;;;;;6.57;100.00;101255.78;5033618;28;20025;-66
2022/11/11 01:20:32;;;;;;;65.15;47.10;;;;;;;6.42;100.00;101245.53;5051955;28;20041;-66
2022/11/11 01:22:57;;;;;;;70.43;48.20;;;;;;;6.07;100.00;101206.50;5051825;28;20036;-66
2022/11/11 01:25:23;;;;;;;64.72;45.15;;;;;;;6.48;100.00;101220.34;5051345;28;20115;-66
2022/11/11 01:27:49;;;;;;;66.22;47.38;;;;;;;6.43;100.00;101216.09;5033446;28;20113;-66
2022/11/11 01:30:14;;;;;;;66.95;47.53;;;;;;;6.68;100.00;101217.97;5051336;28;20033;-67
2022/11/11 01:32:40;;;;;;;70.90;47.83;;;;;;;6.18;100.00;101234.38;5051518;28;20190;-66
2022/11/11 01:35:06;;;;;;;64.25;47.33;;;;;;;6.33;100.00;101234.50;5051837;28;20033;-68
2022/11/11 01:37:32;;;;;;;68.38;47.13;;;;;;;6.45;100.00;101237.16;5051383;28;20029;-66
2022/11/11 01:39:58;;;;;;;68.28;49.10;;;;;;;6.63;100.00;101229.72;5051540;28;20411;-65
2022/11/11 01:42:23;;;;;;;73.45;50.63;;;;;;;6.51;100.00;101190.06;5051065;28;20029;-65
2022/11/11 01:44:49;;;;;;;73.18;46.58;;;;;;;6.13;100.00;101174.59;5051014;28;20039;-66
2022/11/11 01:47:16;;;;;;;71.78;44.83;;;;;;;6.44;100.00;101175.69;5050722;28;20029;-65
2022/11/11 01:49:57;;;;;;;71.03;47.67;;;;;;;5.73;100.00;101147.22;5051256;28;20040;-65
2022/11/11 01:52:29;;;;;;;68.85;43.83;;;;;;;6.72;100.00;101210.44;5050976;28;20147;-66
2022/11/11 01:54:57;;;;;;;70.72;47.60;;;;;;;6.40;100.00;101227.00;5050593;28;20122;-65
2022/11/11 01:57:59;;;;;;;68.47;47.97;;;;;;;6.38;100.00;101230.38;5051091;28;20032;-66
2022/11/11 02:00:25;;;;;;;67.72;45.60;;;;;;;6.38;100.00;101216.03;5050940;28;20025;-66
2022/11/11 02:02:59;;;;;;;65.70;45.50;;;;;;;6.15;100.00;101144.31;5033057;28;20074;-66
2022/11/11 02:05:42;;;;;;;63.63;42.80;;;;;;;6.26;100.00;101157.84;5050830;28;20029;-67
2022/11/11 02:08:33;;;;;;;60.78;42.22;;;;;;;6.48;100.00;101222.00;5050819;28;20029;-66
2022/11/11 02:11:09;;;;;;;59.90;40.22;;;;;;;6.42;100.00;101200.06;5032763;28;20065;-66
2022/11/11 02:16:25;;;;;;;61.22;41.47;;;;;;;6.35;100.00;101165.50;5050544;28;20044;-67
2022/11/11 02:18:50;;;;;;;63.80;43.90;;;;;;;5.99;100.00;101145.84;5050597;28;20025;-66
2022/11/11 02:21:29;;;;;;;63.20;42.20;;;;;;;5.93;100.00;101162.59;5050488;28;20047;-67
2022/11/11 02:24:15;;;;;;;65.03;43.72;;;;;;;5.84;100.00;101114.56;5050647;28;20079;-67
2022/11/11 02:26:43;;;;;;;60.63;41.90;;;;;;;6.26;100.00;101184.78;5032076;28;20039;-67
2022/11/11 02:29:20;;;;;;;62.95;43.10;;;;;;;6.21;100.00;101219.25;5048913;28;20033;-66
2022/11/11 02:31:45;;;;;;;60.85;42.63;;;;;;;5.65;100.00;101146.28;5050484;28;20028;-67
2022/11/11 02:34:11;;;;;;;62.75;42.55;;;;;;;5.90;100.00;101187.81;5050451;28;20446;-68
2022/11/11 02:36:38;;;;;;;61.42;40.88;;;;;;;6.46;100.00;101224.53;5050401;28;20463;-67
2022/11/11 02:39:04;;;;;;;61.97;40.67;;;;;;;6.12;100.00;101219.97;5050372;28;20055;-67
2022/11/11 02:44:13;;;;;;;59.53;40.03;;;;;;;5.78;100.00;101142.25;5049909;28;20047;-66
2022/11/11 02:46:38;;;;;;;58.78;39.33;;;;;;;5.99;100.00;101218.19;5050031;28;20124;-66
2022/11/11 02:49:04;;;;;;;57.75;40.10;;;;;;;5.81;100.00;101208.69;5050030;28;20483;-66
2022/11/11 02:51:29;;;;;;;50.88;37.33;;;;;;;5.78;100.00;101170.84;5051718;28;20033;-66
2022/11/11 02:53:57;;;;;;;50.67;34.78;;;;;;;5.96;100.00;101250.97;5069675;28;20051;-66
2022/11/11 02:59:07;;;;;;;48.83;33.92;;;;;;;5.77;100.00;101237.25;5070192;28;20520;-66
2022/11/11 03:01:33;;;;;;;47.80;34.45;;;;;;;5.41;100.00;101246.03;5069448;28;20123;-66
2022/11/11 03:03:58;;;;;;;46.92;34.35;;;;;;;5.89;100.00;101223.97;5069630;28;20119;-65
2022/11/11 03:06:23;;;;;;;52.70;35.75;;;;;;;5.45;100.00;101242.75;5068997;28;20020;-65
2022/11/11 03:08:49;;;;;;;56.92;36.28;;;;;;;5.80;100.00;101223.84;5069655;28;20395;-65
2022/11/11 03:11:14;;;;;;;51.75;35.53;;;;;;;5.62;100.00;101232.03;5069727;28;20048;-64
2022/11/11 03:13:39;;;;;;;50.35;35.40;;;;;;;5.00;100.00;101158.13;5051576;28;20059;-65
2022/11/11 03:16:05;;;;;;;52.83;36.03;;;;;;;5.37;100.00;101156.91;5069628;28;20033;-66
2022/11/11 03:18:31;;;;;;;51.42;36.55;;;;;;;5.14;100.00;101166.72;5051487;28;20063;-66
2022/11/11 03:21:05;;;;;;;48.95;35.75;;;;;;;5.50;100.00;101167.97;5069054;28;20062;-66
2022/11/11 03:23:31;;;;;;;56.08;36.03;;;;;;;5.61;100.00;101163.91;5069323;28;20030;-66
2022/11/11 03:25:56;;;;;;;56.90;37.95;;;;;;;5.74;100.00;101183.41;5069373;28;20036;-65
2022/11/11 03:28:23;;;;;;;57.25;38.22;;;;;;;5.83;100.00;101244.03;5069342;28;20029;-65
2022/11/11 03:30:49;;;;;;;58.85;39.70;;;;;;;5.79;100.00;101171.66;5069155;28;20028;-66
2022/11/11 03:33:17;;;;;;;59.28;39.10;;;;;;;5.87;100.00;101233.19;5069180;28;20032;-66
2022/11/11 03:35:45;;;;;;;66.50;42.38;;;;;;;5.64;100.00;101179.06;5069425;28;20154;-66
2022/11/11 03:38:14;;;;;;;65.25;43.17;;;;;;;5.46;100.00;101173.81;5069329;28;20107;-66
2022/11/11 03:40:42;;;;;;;75.38;45.40;;;;;;;5.97;100.00;101235.84;5069102;28;20052;-66
2022/11/11 03:43:07;;;;;;;79.75;48.40;;;;;;;5.75;100.00;101205.25;5069302;28;20111;-66
2022/11/11 03:45:33;;;;;;;79.28;49.38;;;;;;;5.71;100.00;101232.13;5068940;28;20494;-67
2022/11/11 03:47:58;;;;;;;84.03;52.70;;;;;;;5.45;100.00;101144.41;5068693;28;20529;-67
2022/11/11 03:50:24;;;;;;;169.63;116.68;;;;;;;5.81;100.00;101212.91;5069240;28;20021;-66
2022/11/11 03:52:49;;;;;;;151.80;101.97;;;;;;;5.74;100.00;101163.22;5051033;28;20472;-66
2022/11/11 03:55:15;;;;;;;221.23;125.55;;;;;;;5.29;100.00;101182.00;5069085;28;20479;-67
2022/11/11 03:57:44;;;;;;;106.07;64.65;;;;;;;5.78;100.00;101182.59;5068899;28;20071;-66
2022/11/11 04:00:10;;;;;;;165.07;92.00;;;;;;;5.56;100.00;101178.16;5051051;28;20025;-66
2022/11/11 04:10:48;;;;;;;77.32;48.13;;;;;;;4.76;100.00;101132.59;5069205;28;20729;-67
2022/11/11 04:16:06;;;;;;;72.45;45.17;;;;;;;4.87;100.00;101168.84;5068856;28;20116;-66
2022/11/11 04:24:01;;;;;;;74.03;44.72;;;;;;;5.43;100.00;101235.13;5068801;28;20059;-66
2022/11/11 04:26:26;;;;;;;78.18;47.10;;;;;;;5.65;100.00;101238.78;5068785;28;20475;-65
2022/11/11 04:31:36;;;;;;;78.50;47.10;;;;;;;4.96;100.00;101186.63;5068738;28;20032;-66
2022/11/11 04:34:01;;;;;;;82.95;46.38;;;;;;;5.92;100.00;101183.63;5068383;28;20032;-68
2022/11/11 04:36:27;;;;;;;85.03;48.85;;;;;;;9.18;100.00;101226.31;5068452;28;20021;-67
2022/11/11 04:41:36;;;;;;;93.15;55.33;;;;;;;5.84;100.00;101238.22;5068637;28;20090;-66
2022/11/11 04:46:46;;;;;;;96.70;57.17;;;;;;;5.85;100.00;101263.47;5068732;28;20097;-65
2022/11/11 04:49:11;;;;;;;102.10;59.45;;;;;;;5.54;100.00;101215.09;5061788;28;20033;-65
2022/11/11 04:54:21;;;;;;;89.72;57.65;;;;;;;5.33;100.00;101172.00;5051691;28;20157;-66
2022/11/11 04:56:46;;;;;;;88.00;56.03;;;;;;;5.67;100.00;101199.28;5054491;28;20490;-66
2022/11/11 04:59:20;;;;;;;97.50;58.78;;;;;;;5.17;100.00;101151.63;5072139;28;20040;-65
2022/11/11 05:04:41;;;;;;;99.40;57.60;;;;;;;5.61;100.00;101222.75;5016719;28;20164;-66
2022/11/11 05:09:50;;;;;;;110.68;67.97;;;;;;;5.60;100.00;101210.13;5071665;28;20429;-68
2022/11/11 05:12:15;;;;;;;115.97;69.75;;;;;;;6.15;100.00;101280.63;5071988;28;20032;-65
2022/11/11 05:22:53;;;;;;;74.05;46.08;;;;;;;4.94;100.00;101263.00;5054768;28;20134;-65
2022/11/11 05:25:24;;;;;;;67.72;43.45;;;;;;;4.53;100.00;101231.25;5056648;28;20083;-69
2022/11/11 05:27:50;;;;;;;76.70;44.60;;;;;;;5.00;100.00;101237.88;5051742;28;20033;-68
2022/11/11 05:30:16;;;;;;;67.38;43.58;;;;;;;4.42;100.00;101178.22;5032958;28;20040;-64
2022/11/11 05:32:42;;;;;;;69.30;45.90;;;;;;;4.77;100.00;101250.16;5033756;28;20044;-65
2022/11/11 05:35:08;;;;;;;68.53;46.10;;;;;;;5.38;100.00;101312.41;5051342;28;20033;-65
2022/11/11 05:37:34;;;;;;;69.38;47.28;;;;;;;5.42;100.00;101308.25;5042828;28;20106;-65
2022/11/11 05:40:00;;;;;;;67.28;45.20;;;;;;;6.10;100.00;101315.06;5061332;28;20036;-64
2022/11/11 05:42:25;;;;;;;71.50;47.35;;;;;;;5.89;100.00;101332.47;5050760;28;20029;-65
2022/11/11 05:44:51;;;;;;;77.72;46.97;;;;;;;6.29;100.00;101289.19;5071045;28;20127;-67
2022/11/11 05:47:17;;;;;;;73.53;47.50;;;;;;;6.14;100.00;101327.72;5071150;28;20475;-68
2022/11/11 05:49:42;;;;;;;82.95;48.80;;;;;;;6.53;100.00;101334.91;5071538;28;20260;-64
2022/11/11 05:52:09;;;;;;;78.32;49.38;;;;;;;5.88;100.00;101266.00;5070737;28;20667;-67
2022/11/11 05:54:35;;;;;;;76.38;49.28;;;;;;;5.96;100.00;101329.19;5052338;28;20136;-66
2022/11/11 05:57:00;;;;;;;89.22;56.15;;;;;;;6.42;100.00;101338.97;5070661;28;20115;-67
2022/11/11 05:59:26;;;;;;;94.63;60.17;;;;;;;6.24;100.00;101283.22;5052608;28;20036;-65
2022/11/11 06:01:51;;;;;;;94.13;58.45;;;;;;;6.27;100.00;101316.09;5070772;28;20138;-66
2022/11/11 06:04:17;;;;;;;95.90;57.78;;;;;;;6.53;100.00;101317.22;5070312;28;20115;-66
2022/11/11 06:06:42;;;;;;;94.05;57.78;;;;;;;6.76;100.00;101312.38;5070448;28;20031;-67
2022/11/11 06:09:07;;;;;;;104.72;61.75;;;;;;;6.85;100.00;101330.97;5070771;28;20406;-66
2022/11/11 06:11:33;;;;;;;101.95;61.70;;;;;;;7.42;100.00;101333.13;5070274;28;20103;-66
2022/11/11 06:13:59;;;;;;;105.45;61.83;;;;;;;6.49;100.00;101233.81;5052292;28;20052;-67
2022/11/11 06:16:24;;;;;;;99.25;60.65;;;;;;;8.03;100.00;101222.88;5070105;28;20036;-68
2022/11/11 06:18:50;;;;;;;108.70;64.68;;;;;;;9.20;100.00;101353.16;5070997;28;20099;-67
2022/11/11 06:21:16;;;;;;;98.63;62.40;;;;;;;8.04;100.00;101363.03;5070693;28;20120;-66
2022/11/11 06:23:42;;;;;;;105.45;62.38;;;;;;;7.32;100.00;101295.97;5070493;28;20051;-65
2022/11/11 06:26:12;;;;;;;99.55;63.10;;;;;;;7.43;100.00;101293.47;5070508;28;20047;-66
2022/11/11 06:28:49;;;;;;;96.22;65.40;;;;;;;7.70;100.00;101349.34;5070189;28;20024;-66
2022/11/11 06:31:26;;;;;;;98.70;65.00;;;;;;;9.30;100.00;101349.78;5052669;28;20553;-66
2022/11/11 06:33:52;;;;;;;102.25;67.05;;;;;;;8.90;100.00;101283.00;5070375;28;20609;-67
2022/11/11 06:36:20;;;;;;;99.85;65.20;;;;;;;9.55;100.00;101374.28;5070438;28;20032;-67
2022/11/11 06:38:45;;;;;;;108.35;69.75;;;;;;;9.41;100.00;101355.69;5070643;28;20036;-66
2022/11/11 06:41:11;;;;;;;108.93;71.22;;;;;;;8.88;100.00;101357.38;5069586;28;20035;-66
2022/11/11 06:43:46;;;;;;;105.47;72.45;;;;;;;8.61;100.00;101312.56;5052079;28;20025;-67
2022/11/11 06:46:22;;;;;;;109.63;75.22;;;;;;;9.37;100.00;101377.69;5052328;28;20082;-66
2022/11/11 06:48:48;;;;;;;112.10;73.63;;;;;;;9.53;100.00;101368.34;5070458;28;20672;-66
2022/11/11 06:51:13;;;;;;;110.13;71.15;;;;;;;10.27;100.00;101388.53;5069824;28;20024;-67
2022/11/11 06:53:40;;;;;;;106.88;73.53;;;;;;;9.20;100.00;101313.41;5069683;28;20045;-67
2022/11/11 06:56:06;;;;;;;111.63;72.40;;;;;;;8.46;100.00;101312.50;5070135;28;20036;-66
2022/11/11 06:58:32;;;;;;;116.82;74.32;;;;;;;9.41;100.00;101375.97;5069758;28;20443;-66
2022/11/11 07:00:57;;;;;;;111.90;73.97;;;;;;;9.16;100.00;101304.13;5069968;28;20074;-67
2022/11/11 07:03:23;;;;;;;113.93;77.50;;;;;;;8.96;100.00;101369.22;5069647;28;20032;-67
2022/11/11 07:05:48;;;;;;;112.10;74.03;;;;;;;9.71;100.00;101345.47;5069466;28;20506;-67
2022/11/11 07:08:16;;;;;;;105.88;71.35;;;;;;;9.78;100.00;101379.31;5069557;28;20035;-66
2022/11/11 07:10:47;;;;;;;110.97;72.63;;;;;;;9.50;100.00;101386.16;5051624;28;20033;-67
2022/11/11 07:13:16;;;;;;;110.40;71.60;;;;;;;9.54;100.00;101320.13;5069215;28;20021;-66
2022/11/11 07:15:42;;;;;;;110.68;75.20;;;;;;;10.37;100.00;101397.78;5051794;28;20056;-66
2022/11/11 07:18:08;;;;;;;107.68;73.90;;;;;;;10.42;100.00;101385.91;5069601;28;20035;-65
2022/11/11 07:20:34;;;;;;;105.35;73.30;;;;;;;9.90;100.00;101370.00;5069151;28;20548;-66
2022/11/11 07:22:59;;;;;;;104.82;72.03;;;;;;;10.25;100.00;101391.06;5051052;28;20060;-67
2022/11/11 07:25:25;;;;;;;112.15;74.85;;;;;;;10.02;100.00;101318.28;5051530;28;20028;-65
2022/11/11 07:27:51;;;;;;;104.10;68.72;;;;;;;10.26;100.00;101320.75;5069529;28;20047;-66
2022/11/11 07:30:17;;;;;;;96.07;65.57;;;;;;;10.55;100.00;101285.84;5069570;28;20086;-65
2022/11/11 07:32:47;;;;;;;94.40;59.85;;;;;;;10.58;100.00;101334.13;5051504;28;20418;-66
2022/11/11 07:35:13;;;;;;;92.13;57.88;;;;;;;10.85;100.00;101321.22;5051065;28;20032;-66
2022/11/11 07:37:39;;;;;;;96.88;57.28;;;;;;;11.08;100.00;101385.50;5051377;28;20117;-66
2022/11/11 07:40:06;;;;;;;97.40;57.38;;;;;;;10.53;100.00;101332.47;5069478;28;20024;-66
2022/11/11 07:42:34;;;;;;;96.35;55.97;;;;;;;11.02;100.00;101379.59;5051325;28;20479;-66
2022/11/11 07:44:59;;;;;;;108.55;59.05;;;;;;;10.05;100.00;101281.00;5069304;28;20036;-67
2022/11/11 07:47:25;;;;;;;110.97;57.88;;;;;;;10.53;100.00;101291.78;5069538;28;20517;-66
2022/11/11 07:49:50;;;;;;;105.47;58.85;;;;;;;10.48;100.00;101334.19;5051054;28;20570;-67
2022/11/11 07:52:15;;;;;;;123.80;61.03;;;;;;;11.62;100.00;101368.91;5069075;28;20024;-67
2022/11/11 07:54:41;;;;;;;109.38;56.20;;;;;;;11.74;100.00;101373.94;5051065;28;20044;-67
2022/11/11 07:57:06;;;;;;;104.78;57.80;;;;;;;11.32;100.00;101324.22;5069745;28;20032;-67
2022/11/11 07:59:32;;;;;;;111.65;60.25;;;;;;;11.93;100.00;101375.41;5069468;28;20033;-67
2022/11/11 08:01:58;;;;;;;100.78;57.70;;;;;;;11.58;100.00;101333.28;5069216;28;20029;-67
2022/11/11 08:04:23;;;;;;;90.55;57.92;;;;;;;11.78;100.00;101324.63;5068806;28;20036;-68
2022/11/11 08:06:48;;;;;;;96.35;58.97;;;;;;;11.94;100.00;101277.69;5069022;28;20025;-68
2022/11/11 08:09:14;;;;;;;96.30;59.97;;;;;;;12.08;100.00;101323.41;5068941;28;20024;-67
2022/11/11 08:14:23;;;;;;;108.97;66.43;;;;;;;12.04;100.00;101342.16;5069043;28;20102;-68
2022/11/11 08:16:48;;;;;;;105.45;63.38;;;;;;;11.96;100.00;101341.41;5069233;28;20028;-67
2022/11/11 08:19:14;;;;;;;101.85;60.03;;;;;;;12.19;100.00;101403.16;5069072;28;20025;-67
2022/11/11 08:21:39;;;;;;;92.65;58.03;;;;;;;12.03;100.00;101399.09;5069335;28;20033;-67
2022/11/11 08:24:05;;;;;;;94.32;58.05;;;;;;;11.91;100.00;101412.81;5068900;28;20035;-68
2022/11/11 08:26:31;;;;;;;94.95;59.85;;;;;;;11.64;100.00;101340.88;5071380;28;20037;-67
2022/11/11 08:28:57;;;;;;;98.43;57.95;;;;;;;11.93;100.00;101405.13;5055153;28;20025;-68
2022/11/11 08:31:22;;;;;;;93.82;58.65;;;;;;;11.62;100.00;101363.81;5072793;28;20024;-67
2022/11/11 08:33:47;;;;;;;95.85;60.97;;;;;;;11.92;100.00;101400.91;5071988;28;20028;-68
2022/11/11 08:36:13;;;;;;;99.32;64.10;;;;;;;11.66;100.00;101349.38;5072390;28;20029;-67
2022/11/11 08:38:38;;;;;;;106.68;64.20;;;;;;;12.16;100.00;101395.56;5072437;28;20056;-67
2022/11/11 08:41:05;;;;;;;104.82;63.85;;;;;;;12.47;100.00;101396.00;5072551;28;20104;-68
2022/11/11 08:43:33;;;;;;;101.28;63.78;;;;;;;12.22;100.00;101346.19;5072777;28;20025;-68
2022/11/11 08:46:00;;;;;;;102.80;60.95;;;;;;;12.43;100.00;101373.94;5072688;28;20107;-67
2022/11/11 08:48:26;;;;;;;97.82;58.80;;;;;;;12.01;100.00;101297.16;5072349;28;20028;-67
2022/11/11 08:50:52;;;;;;;98.97;59.47;;;;;;;12.68;100.00;101388.91;5054198;28;20028;-68
2022/11/11 08:53:19;;;;;;;101.47;61.15;;;;;;;12.87;100.00;101380.16;5054654;28;20430;-67
2022/11/11 08:55:45;;;;;;;94.13;60.05;;;;;;;12.98;100.00;101383.38;5072266;28;20029;-68
2022/11/11 08:58:11;;;;;;;93.07;57.80;;;;;;;12.62;100.00;101326.91;5054410;28;20039;-68
2022/11/11 09:00:37;;;;;;;92.57;59.13;;;;;;;12.92;100.00;101364.75;5072111;28;20035;-70
2022/11/11 09:03:05;;;;;;;94.82;57.83;;;;;;;12.71;100.00;101331.91;5072073;28;20410;-67
2022/11/11 09:05:30;;;;;;;95.15;57.70;;;;;;;12.61;100.00;101310.78;5072495;28;20036;-67
2022/11/11 09:08:00;;;;;;;102.22;56.63;;;;;;;12.80;100.00;101316.44;5072261;28;20024;-68
2022/11/11 09:10:25;;;;;;;91.60;55.67;;;;;;;12.67;100.00;101299.63;5072199;28;20039;-67
2022/11/11 09:13:00;;;;;;;91.70;56.50;;;;;;;12.84;100.00;101313.81;5054393;28;20024;-68
2022/11/11 09:15:27;;;;;;;93.30;50.92;;;;;;;13.05;100.00;101316.03;5071757;28;20040;-67
2022/11/11 09:17:53;;;;;;;94.45;51.15;;;;;;;13.15;100.00;101326.13;5053970;28;20025;-68
2022/11/11 09:20:19;;;;;;;85.22;51.97;;;;;;;13.46;100.00;101356.22;5053884;28;20063;-67
2022/11/11 09:22:46;;;;;;;80.68;50.90;;;;;;;13.51;100.00;101372.28;5053820;28;20078;-67
2022/11/11 09:25:12;;;;;;;84.50;53.47;;;;;;;13.61;100.00;101368.72;5053519;28;20414;-67
2022/11/11 09:27:38;;;;;;;49.55;30.85;;;;;;;14.32;100.00;101366.53;5071818;28;20025;-67
2022/11/11 09:30:04;;;;;;;24.42;16.88;;;;;;;14.67;100.00;101351.22;5053729;28;20024;-67
2022/11/11 09:32:30;;;;;;;26.23;13.60;;;;;;;14.69;100.00;101346.91;5053767;28;20031;-68
2022/11/11 09:34:56;;;;;;;17.83;13.43;;;;;;;14.77;100.00;101351.00;5053782;28;20029;-68
2022/11/11 09:37:21;;;;;;;24.35;11.80;;;;;;;14.75;100.00;101342.50;5071353;28;20033;-68
2022/11/11 09:39:47;;;;;;;24.27;11.80;;;;;;;14.80;100.00;101347.50;5072036;28;20029;-66
2022/11/11 09:42:40;;;;;;;22.60;9.98;;;;;;;14.21;100.00;101236.25;5071721;28;20028;-67
2022/11/11 09:45:06;;;;;;;28.02;8.82;;;;;;;14.93;100.00;101337.81;5053397;28;20028;-66
2022/11/11 09:47:56;;;;;;;28.52;9.95;;;;;;;14.85;100.00;101344.84;5071582;28;20055;-67
2022/11/11 09:50:25;;;;;;;17.63;8.18;;;;;;;14.51;100.00;101296.13;5071259;28;20042;-67
2022/11/11 09:52:54;;;;;;;15.88;8.95;;;;;;;14.92;100.00;101343.81;5053275;28;20064;-67
2022/11/11 09:55:51;;;;;;;17.73;8.80;;;;;;;14.98;100.00;101349.63;5053005;28;20040;-67
2022/11/11 09:58:25;;;;;;;17.23;11.32;;;;;;;14.95;100.00;101346.31;5041476;28;20037;-67
2022/11/11 10:01:00;;;;;;;9.25;7.13;;;;;;;15.01;100.00;101349.56;5071354;28;20111;-68
2022/11/11 10:03:29;;;;;;;11.65;7.40;;;;;;;14.96;100.00;101348.81;5052755;28;20059;-68
2022/11/11 10:06:09;;;;;;;8.98;5.93;;;;;;;14.88;100.00;101337.91;5070791;28;20059;-67
2022/11/11 10:09:01;;;;;;;7.93;6.85;;;;;;;14.87;100.00;101346.50;5053263;28;20498;-67
2022/11/11 10:11:35;;;;;;;;;;;;;;;14.88;100.00;101339.63;5071141;28;20024;-67
2022/11/11 10:14:02;;;;;;;10.20;6.00;;;;;;;14.29;100.00;101248.88;5053019;28;19956;-68
2022/11/11 10:16:38;;;;;;;12.80;6.55;;;;;;;14.82;100.00;101343.19;5071675;28;20036;-67
2022/11/11 10:19:15;;;;;;;9.38;6.85;;;;;;;14.93;100.00;101348.06;4715355;28;10000368;-68
2022/11/11 10:21:48;;;;;;;9.05;7.13;;;;;;;14.57;100.00;101299.41;5068224;28;20036;-67
2022/11/11 10:24:37;;;;;;;12.90;7.40;;;;;;;14.82;100.00;101350.03;5067771;28;20068;-67
2022/11/11 10:27:30;;;;;;;10.40;6.22;;;;;;;14.75;100.00;101337.38;5045319;28;20045;-68
2022/11/11 10:29:56;;;;;;;9.23;6.80;;;;;;;14.75;100.00;101332.28;5077913;28;20040;-67
2022/11/11 10:32:28;;;;;;;10.18;8.60;;;;;;;14.75;100.00;101327.16;5073444;28;20036;-68
2022/11/11 10:35:02;;;;;;;14.23;11.05;;;;;;;14.72;100.00;101311.84;5067669;28;20104;-66
2022/11/11 10:37:38;;;;;;;17.50;12.32;;;;;;;14.41;100.00;101262.25;5050924;28;20522;-67
2022/11/11 10:40:28;;;;;;;8.73;5.03;;;;;;;14.85;100.00;101320.09;5079514;28;20089;-67
2022/11/11 10:42:53;;;;;;;6.13;2.85;;;;;;;14.43;100.00;101249.41;5087351;28;20032;-69
2022/11/11 10:45:27;;;;;;;9.93;2.85;;;;;;;14.80;100.00;101324.47;5069630;28;20687;-65
2022/11/11 10:48:02;;;;;;;5.72;2.22;;;;;;;14.75;100.00;101318.63;5087178;28;20036;-67
2022/11/11 10:50:39;;;;;;;13.10;6.30;;;;;;;14.82;100.00;101316.72;5089454;28;20060;-66
2022/11/11 10:53:04;;;;;;;10.73;5.20;;;;;;;14.75;100.00;101318.63;5090117;28;20186;-66
2022/11/11 10:55:41;;;;;;;8.80;4.30;;;;;;;14.27;100.00;101259.13;5071735;28;20119;-67
2022/11/11 10:58:16;;;;;;;16.38;8.80;;;;;;;14.31;100.00;101294.03;5090090;28;20478;-66
2022/11/11 11:00:47;;;;;;;13.05;7.07;;;;;;;13.91;100.00;101252.25;5090724;28;20035;-66
2022/11/11 11:03:20;;;;;;;16.77;8.13;;;;;;;13.77;100.00;101238.91;5072446;28;20197;-66
2022/11/11 11:06:15;;;;;;;11.07;5.00;;;;;;;14.10;100.00;101302.16;5071651;28;20032;-68
2022/11/11 11:08:46;;;;;;;6.15;3.80;;;;;;;13.65;100.00;101249.38;5090011;28;20243;-68
2022/11/11 11:11:50;;;;;;;6.60;3.40;;;;;;;13.84;100.00;101297.53;5089609;28;20032;-69
2022/11/11 11:14:25;;;;;;;3.97;2.53;;;;;;;13.81;100.00;101294.22;5089113;28;20051;-69
2022/11/11 11:16:54;;;;;;;5.25;2.55;;;;;;;13.55;100.00;101253.84;5089503;28;20040;-68
2022/11/11 11:19:25;;;;;;;3.92;3.15;;;;;;;13.77;100.00;101300.25;5089637;28;20396;-68
2022/11/11 11:21:55;;;;;;;5.28;3.95;;;;;;;13.76;100.00;101317.31;5071584;28;20028;-68
2022/11/11 11:24:20;;;;;;;4.38;3.05;;;;;;;13.68;100.00;101311.53;5090203;28;20035;-68
2022/11/11 11:26:50;;;;;;;7.32;5.28;;;;;;;13.11;100.00;101197.66;5089961;28;20032;-68
2022/11/11 11:29:41;;;;;;;6.45;3.72;;;;;;;13.37;100.00;101238.03;5089872;28;20110;-70
2022/11/11 11:32:30;;;;;;;7.13;5.38;;;;;;;13.72;100.00;101297.81;5090193;28;20038;-68
2022/11/11 11:34:56;;;;;;;5.95;4.43;;;;;;;13.43;100.00;101259.19;5061758;28;20127;-69
2022/11/11 11:37:24;;;;;;;6.65;4.65;;;;;;;13.66;100.00;101307.31;5090421;28;20032;-68
2022/11/11 11:40:01;;;;;;;3.90;3.60;;;;;;;13.80;100.00;101308.72;5071873;28;20028;-69
2022/11/11 11:42:32;;;;;;;7.22;5.15;;;;;;;13.82;100.00;101303.56;5090293;28;20039;-69
2022/11/11 11:45:23;;;;;;;6.00;4.57;;;;;;;13.79;100.00;101303.63;5090144;28;20080;-68
2022/11/11 11:48:15;;;;;;;7.50;4.72;;;;;;;13.13;100.00;101208.69;5089923;28;20490;-69
2022/11/11 11:51:02;;;;;;;7.78;4.75;;;;;;;13.72;100.00;101308.03;5089968;28;20028;-68
2022/11/11 11:54:11;;;;;;;6.20;5.25;;;;;;;13.59;100.00;101298.91;5071521;28;20059;-69
2022/11/11 11:56:57;;;;;;;9.48;6.63;;;;;;;13.58;100.00;101317.69;5089848;28;20032;-68
2022/11/11 11:59:41;;;;;;;8.63;6.90;;;;;;;13.56;100.00;101310.91;5089871;28;20387;-69
2022/11/11 12:02:36;;;;;;;7.93;7.10;;;;;;;13.54;100.00;101304.97;5094016;28;20173;-68
2022/11/11 12:05:17;;;;;;;12.98;7.93;;;;;;;13.15;100.00;101231.63;5075629;28;20577;-67
2022/11/11 12:08:10;;;;;;;9.37;8.30;;;;;;;13.51;100.00;101305.03;5075706;28;20198;-68
2022/11/11 12:10:52;;;;;;;8.68;6.22;;;;;;;13.35;100.00;101296.78;5093726;28;20254;-68
2022/11/11 12:13:38;;;;;;;6.47;5.88;;;;;;;13.06;100.00;101260.72;5075725;28;20051;-69
2022/11/11 12:16:45;;;;;;;6.72;6.03;;;;;;;13.35;100.00;101303.63;5093671;28;20027;-68
2022/11/11 12:19:31;;;;;;;7.72;6.90;;;;;;;13.29;100.00;101311.41;5092951;28;20197;-68
2022/11/11 12:22:04;;;;;;;7.80;7.00;;;;;;;12.90;100.00;101246.50;5093323;28;20501;-69
2022/11/11 12:24:52;;;;;;;8.77;7.30;;;;;;;13.30;100.00;101308.81;5092778;28;20063;-68
2022/11/11 12:27:24;;;;;;;8.70;7.43;;;;;;;13.36;100.00;101312.97;5074513;28;20036;-68